createdAt,value
2023-06-10T00:01:37.837Z,101754.91
2023-06-10T00:04:05.597Z,101754.53
2023-06-10T00:06:37.057Z,101755.72
2023-06-10T00:09:06.174Z,101752.94
2023-06-10T00:11:33.721Z,101755.34
2023-06-10T00:14:01.507Z,101760.09
2023-06-10T00:16:29.089Z,101760.50
2023-06-10T00:19:02.358Z,101764.84
2023-06-10T00:21:29.757Z,101765.31
2023-06-10T00:23:57.632Z,101766.84
2023-06-10T00:26:24.807Z,101763.63
2023-06-10T00:28:53.508Z,101768.75
2023-06-10T00:31:21.912Z,101773.03
2023-06-10T00:33:48.984Z,101767.78
2023-06-10T00:36:16.191Z,101772.91
2023-06-10T00:38:43.157Z,101764.81
2023-06-10T00:41:10.228Z,101772.72
2023-06-10T00:43:37.310Z,101768.25
2023-06-10T00:46:04.481Z,101765.81
2023-06-10T00:48:31.826Z,101766.63
2023-06-10T00:51:00.764Z,101764.19
2023-06-10T00:53:29.421Z,101770.03
2023-06-10T00:55:56.521Z,101780.72
2023-06-10T00:58:25.337Z,101779.03
2023-06-10T01:00:53.130Z,101770.19
2023-06-10T01:03:20.299Z,101776.91
2023-06-10T01:06:01.776Z,101774.47
2023-06-10T01:08:42.853Z,101772.41
2023-06-10T01:11:18.884Z,101772.41
2023-06-10T01:13:46.713Z,101779.94
2023-06-10T01:16:14.082Z,101783.44
2023-06-10T01:18:41.671Z,101783.84
2023-06-10T01:21:10.425Z,101790.84
2023-06-10T01:23:39.062Z,101786.03
2023-06-10T01:26:11.749Z,101788.31
2023-06-10T01:28:55.595Z,101788.66
2023-06-10T01:31:35.394Z,101787.41
2023-06-10T01:34:04.190Z,101782.59
2023-06-10T01:36:33.217Z,101789.22
2023-06-10T01:39:02.073Z,101789.69
2023-06-10T01:41:29.977Z,101786.53
2023-06-10T01:43:56.840Z,101790.41
2023-06-10T01:46:24.118Z,101782.00
2023-06-10T01:48:51.150Z,101782.41
2023-06-10T01:51:18.125Z,101784.34
2023-06-10T01:53:45.369Z,101790.25
2023-06-10T01:56:17.800Z,101788.59
2023-06-10T01:58:45.205Z,101781.72
2023-06-10T02:01:12.439Z,101792.31
2023-06-10T02:03:39.565Z,101787.03
2023-06-10T02:06:06.619Z,101788.94
2023-06-10T02:08:33.694Z,101786.81
2023-06-10T02:11:01.261Z,101787.97
2023-06-10T02:13:30.572Z,101786.34
2023-06-10T02:15:58.316Z,101783.16
2023-06-10T02:18:29.846Z,101791.13
2023-06-10T02:20:56.885Z,101786.72
2023-06-10T02:23:24.302Z,101788.34
2023-06-10T02:25:51.260Z,101787.63
2023-06-10T02:28:18.842Z,101785.56
2023-06-10T02:30:48.053Z,101794.25
2023-06-10T02:33:16.017Z,101789.50
2023-06-10T02:35:44.294Z,101792.63
2023-06-10T02:38:11.236Z,101795.34
2023-06-10T02:40:38.425Z,101800.00
2023-06-10T02:43:05.512Z,101788.00
2023-06-10T02:45:33.308Z,101797.75
2023-06-10T02:48:02.020Z,101789.78
2023-06-10T02:50:29.429Z,101795.69
2023-06-10T02:53:03.602Z,101798.41
2023-06-10T02:55:31.833Z,101795.78
2023-06-10T02:58:03.979Z,101795.19
2023-06-10T03:00:32.155Z,101795.03
2023-06-10T03:02:59.424Z,101793.31
2023-06-10T03:05:32.370Z,101786.88
2023-06-10T03:08:02.264Z,101796.38
2023-06-10T03:10:30.888Z,101789.56
2023-06-10T03:12:57.847Z,101792.25
2023-06-10T03:15:26.099Z,101791.81
2023-06-10T03:17:53.681Z,101792.16
2023-06-10T03:20:20.841Z,101796.44
2023-06-10T03:22:48.143Z,101802.34
2023-06-10T03:25:15.944Z,101799.50
2023-06-10T03:27:47.039Z,101805.75
2023-06-10T03:30:15.172Z,101799.41
2023-06-10T03:32:44.420Z,101796.63
2023-06-10T03:35:14.726Z,101791.09
2023-06-10T03:37:42.245Z,101801.34
2023-06-10T03:40:09.930Z,101800.22
2023-06-10T03:42:39.041Z,101800.28
2023-06-10T03:45:07.287Z,101801.56
2023-06-10T03:47:39.704Z,101801.56
2023-06-10T03:50:10.617Z,101803.50
2023-06-10T03:52:40.233Z,101808.59
2023-06-10T03:55:08.348Z,101802.28
2023-06-10T03:57:35.814Z,101812.97
2023-06-10T04:00:07.809Z,101813.78
2023-06-10T04:02:48.426Z,101814.69
2023-06-10T04:05:27.562Z,101811.13
2023-06-10T04:07:54.592Z,101814.31
2023-06-10T04:10:21.820Z,101808.06
2023-06-10T04:12:48.972Z,101811.66
2023-06-10T04:15:16.201Z,101818.81
2023-06-10T04:17:44.133Z,101822.38
2023-06-10T04:20:12.258Z,101819.34
2023-06-10T04:22:43.761Z,101825.34
2023-06-10T04:25:11.739Z,101817.81
2023-06-10T04:27:40.157Z,101817.91
2023-06-10T04:30:07.736Z,101819.16
2023-06-10T04:32:36.945Z,101822.03
2023-06-10T04:35:04.881Z,101827.66
2023-06-10T04:37:32.374Z,101818.97
2023-06-10T04:40:00.431Z,101825.44
2023-06-10T04:42:28.359Z,101827.13
2023-06-10T04:44:55.535Z,101829.97
2023-06-10T04:47:22.468Z,101832.03
2023-06-10T04:49:49.899Z,101834.47
2023-06-10T04:52:19.234Z,101823.81
2023-06-10T04:54:47.005Z,101834.19
2023-06-10T04:57:13.921Z,101835.03
2023-06-10T04:59:40.851Z,101840.38
2023-06-10T05:02:07.887Z,101840.00
2023-06-10T05:04:35.169Z,101842.50
2023-06-10T05:07:02.035Z,101839.81
2023-06-10T05:09:28.914Z,101835.97
2023-06-10T05:11:55.871Z,101841.94
2023-06-10T05:14:23.028Z,101842.41
2023-06-10T05:16:50.358Z,101845.25
2023-06-10T05:19:20.624Z,101846.22
2023-06-10T05:21:47.691Z,101842.81
2023-06-10T05:24:14.973Z,101839.00
2023-06-10T05:26:42.323Z,101838.72
2023-06-10T05:29:10.379Z,101844.34
2023-06-10T05:31:37.416Z,101849.59
2023-06-10T05:34:04.502Z,101847.38
2023-06-10T05:36:31.466Z,101847.06
2023-06-10T05:38:58.337Z,101856.72
2023-06-10T05:41:25.301Z,101858.38
2023-06-10T05:43:52.225Z,101856.56
2023-06-10T05:46:19.203Z,101855.53
2023-06-10T05:48:46.271Z,101853.34
2023-06-10T05:51:13.188Z,101854.31
2023-06-10T05:53:40.842Z,101857.97
2023-06-10T05:56:07.941Z,101851.66
2023-06-10T05:58:34.982Z,101858.91
2023-06-10T06:01:01.940Z,101857.13
2023-06-10T06:03:30.161Z,101849.78
2023-06-10T06:05:57.212Z,101843.94
2023-06-10T06:08:24.153Z,101850.13
2023-06-10T06:10:51.606Z,101858.28
2023-06-10T06:13:18.711Z,101859.50
2023-06-10T06:15:46.081Z,101863.09
2023-06-10T06:18:13.106Z,101864.34
2023-06-10T06:20:40.353Z,101860.97
2023-06-10T06:23:07.435Z,101860.34
2023-06-10T06:25:35.056Z,101864.41
2023-06-10T06:28:02.125Z,101853.28
2023-06-10T06:30:29.040Z,101853.44
2023-06-10T06:32:56.561Z,101849.63
2023-06-10T06:35:23.551Z,101861.31
2023-06-10T06:37:50.691Z,101857.78
2023-06-10T06:40:22.724Z,101854.97
2023-06-10T06:42:50.176Z,101850.63
2023-06-10T06:45:35.803Z,101853.94
2023-06-10T06:48:03.715Z,101855.59
2023-06-10T06:50:30.716Z,101852.13
2023-06-10T06:52:57.643Z,101849.03
2023-06-10T06:55:24.465Z,101848.78
2023-06-10T06:57:51.336Z,101845.75
2023-06-10T07:00:18.813Z,101848.69
2023-06-10T07:02:45.993Z,101858.00
2023-06-10T07:05:13.322Z,101860.38
2023-06-10T07:07:40.783Z,101856.78
2023-06-10T07:10:08.166Z,101862.53
2023-06-10T07:12:35.071Z,101859.91
2023-06-10T07:15:02.055Z,101871.56
2023-06-10T07:17:29.076Z,101867.22
2023-06-10T07:19:58.527Z,101868.41
2023-06-10T07:22:25.635Z,101867.19
2023-06-10T07:24:53.090Z,101872.03
2023-06-10T07:27:20.132Z,101871.28
2023-06-10T07:29:47.180Z,101874.09
2023-06-10T07:32:14.098Z,101880.16
2023-06-10T07:34:40.987Z,101881.41
2023-06-10T07:37:08.128Z,101873.50
2023-06-10T07:39:35.197Z,101880.47
2023-06-10T07:42:02.430Z,101883.63
2023-06-10T07:44:30.267Z,101878.47
2023-06-10T07:46:58.965Z,101883.38
2023-06-10T07:49:25.944Z,101884.22
2023-06-10T07:51:56.131Z,101885.50
2023-06-10T07:54:23.174Z,101883.13
2023-06-10T07:56:50.415Z,101894.81
2023-06-10T07:59:17.365Z,101889.59
2023-06-10T08:01:44.356Z,101895.66
2023-06-10T08:04:12.614Z,101897.69
2023-06-10T08:06:39.804Z,101903.34
2023-06-10T08:09:06.714Z,101899.34
2023-06-10T08:11:33.692Z,101894.63
2023-06-10T08:14:00.619Z,101903.03
2023-06-10T08:16:27.548Z,101899.88
2023-06-10T08:18:55.951Z,101895.91
2023-06-10T08:21:23.057Z,101901.09
2023-06-10T08:23:54.230Z,101909.09
2023-06-10T08:26:21.351Z,101898.69
2023-06-10T08:28:48.401Z,101901.50
2023-06-10T08:31:15.839Z,101898.69
2023-06-10T08:33:43.694Z,101899.44
2023-06-10T08:36:10.693Z,101904.63
2023-06-10T08:38:37.812Z,101910.66
2023-06-10T08:41:06.755Z,101901.00
2023-06-10T08:43:38.654Z,101904.59
2023-06-10T08:46:06.642Z,101904.94
2023-06-10T08:48:37.003Z,101907.38
2023-06-10T08:51:05.786Z,101903.31
2023-06-10T08:53:37.626Z,101903.59
2023-06-10T08:56:07.307Z,101907.13
2023-06-10T08:58:36.544Z,101903.88
2023-06-10T09:01:03.672Z,101916.69
2023-06-10T09:03:31.699Z,101907.06
2023-06-10T09:05:59.160Z,101912.66
2023-06-10T09:08:26.186Z,101901.00
2023-06-10T09:10:53.242Z,101905.72
2023-06-10T09:13:20.446Z,101906.88
2023-06-10T09:15:47.508Z,101904.81
2023-06-10T09:18:14.611Z,101905.97
2023-06-10T09:20:44.198Z,101897.13
2023-06-10T09:23:11.152Z,101898.59
2023-06-10T09:25:39.760Z,101897.66
2023-06-10T09:28:15.023Z,101899.56
2023-06-10T09:30:42.747Z,101896.81
2023-06-10T09:33:18.731Z,101895.09
2023-06-10T09:35:50.651Z,101889.03
2023-06-10T09:38:22.919Z,101895.31
2023-06-10T09:40:54.926Z,101897.13
2023-06-10T09:43:22.478Z,101901.13
2023-06-10T09:45:51.075Z,101892.69
2023-06-10T09:48:18.129Z,101894.50
2023-06-10T09:50:46.537Z,101902.34
2023-06-10T09:53:13.602Z,101905.91
2023-06-10T09:55:42.295Z,101910.38
2023-06-10T09:58:09.234Z,101910.59
2023-06-10T10:00:36.367Z,101901.63
2023-06-10T10:03:03.485Z,101909.03
2023-06-10T10:05:31.213Z,101907.16
2023-06-10T10:07:58.278Z,101903.66
2023-06-10T10:10:25.255Z,101916.19
2023-06-10T10:12:57.608Z,101898.59
2023-06-10T10:15:29.876Z,101904.47
2023-06-10T10:18:03.742Z,101899.56
2023-06-10T10:20:34.409Z,101900.00
2023-06-10T10:23:04.332Z,101893.66
2023-06-10T10:25:36.074Z,101894.41
2023-06-10T10:28:13.331Z,101899.88
2023-06-10T10:30:47.877Z,101898.94
2023-06-10T10:33:24.385Z,101897.22
2023-06-10T10:35:52.454Z,101900.13
2023-06-10T10:38:20.756Z,101894.03
2023-06-10T10:40:48.648Z,101899.53
2023-06-10T10:43:17.102Z,101897.66
2023-06-10T10:45:47.341Z,101893.78
2023-06-10T10:48:16.270Z,101892.31
2023-06-10T10:50:43.215Z,101889.50
2023-06-10T10:53:10.247Z,101900.53
2023-06-10T10:55:37.395Z,101889.25
2023-06-10T10:58:06.883Z,101883.31
2023-06-10T11:00:39.340Z,101876.94
2023-06-10T11:03:13.471Z,101877.69
2023-06-10T11:05:49.410Z,101869.84
2023-06-10T11:08:34.617Z,101868.94
2023-06-10T11:11:01.965Z,101868.56
2023-06-10T11:13:28.957Z,101869.84
2023-06-10T11:15:59.271Z,101867.13
2023-06-10T11:18:30.537Z,101864.78
2023-06-10T11:21:03.732Z,101850.09
2023-06-10T11:23:32.169Z,101864.69
2023-06-10T11:26:33.773Z,101867.72
2023-06-10T11:29:01.010Z,101859.06
2023-06-10T11:31:31.932Z,101853.06
2023-06-10T11:34:04.567Z,101852.13
2023-06-10T11:36:33.189Z,101851.94
2023-06-10T11:39:02.935Z,101848.00
2023-06-10T11:41:32.099Z,101859.22
2023-06-10T11:44:09.457Z,101860.28
2023-06-10T11:46:37.386Z,101856.84
2023-06-10T11:49:06.452Z,101858.78
2023-06-10T11:51:42.078Z,101853.59
2023-06-10T11:54:12.108Z,101856.59
2023-06-10T11:56:39.093Z,101861.09
2023-06-10T11:59:10.762Z,101847.59
2023-06-10T12:01:44.343Z,101851.91
2023-06-10T12:04:14.382Z,101839.91
2023-06-10T12:06:49.237Z,101839.19
2023-06-10T12:09:27.410Z,101829.03
2023-06-10T12:12:01.066Z,101833.28
2023-06-10T12:15:07.320Z,101835.75
2023-06-10T12:17:35.605Z,101828.19
2023-06-10T12:20:23.732Z,101827.31
2023-06-10T12:22:50.798Z,101827.81
2023-06-10T12:25:17.777Z,101819.78
2023-06-10T12:27:55.185Z,101836.31
2023-06-10T12:30:23.415Z,101823.88
2023-06-10T12:32:51.309Z,101826.63
2023-06-10T12:35:20.963Z,101826.25
2023-06-10T12:38:08.149Z,101820.97
2023-06-10T12:40:38.414Z,101814.47
2023-06-10T12:43:05.601Z,101820.03
2023-06-10T12:45:44.637Z,101817.88
2023-06-10T12:48:13.783Z,101827.28
2023-06-10T12:50:42.715Z,101820.44
2023-06-10T12:53:12.513Z,101827.00
2023-06-10T12:55:39.769Z,101812.78
2023-06-10T12:58:06.845Z,101823.25
2023-06-10T13:00:36.199Z,101827.31
2023-06-10T13:03:04.283Z,101825.84
2023-06-10T13:05:31.416Z,101820.59
2023-06-10T13:07:59.213Z,101829.78
2023-06-10T13:10:26.756Z,101826.19
2023-06-10T13:12:55.809Z,101816.13
2023-06-10T13:15:23.274Z,101818.31
2023-06-10T13:17:51.896Z,101815.03
2023-06-10T13:20:20.268Z,101821.84
2023-06-10T13:22:48.756Z,101813.84
2023-06-10T13:25:16.108Z,101816.06
2023-06-10T13:27:43.690Z,101809.03
2023-06-10T13:30:12.071Z,101800.94
2023-06-10T13:32:39.653Z,101811.16
2023-06-10T13:35:07.624Z,101804.16
2023-06-10T13:37:35.299Z,101807.66
2023-06-10T13:40:04.258Z,101801.03
2023-06-10T13:42:31.627Z,101801.53
2023-06-10T13:44:58.583Z,101798.72
2023-06-10T13:47:26.701Z,101797.69
2023-06-10T13:49:53.733Z,101791.06
2023-06-10T13:52:20.771Z,101796.06
2023-06-10T13:54:47.640Z,101796.75
2023-06-10T13:57:14.591Z,101801.56
2023-06-10T13:59:41.605Z,101796.03
2023-06-10T14:02:08.694Z,101796.78
2023-06-10T14:04:35.781Z,101798.06
2023-06-10T14:07:02.642Z,101792.03
2023-06-10T14:09:29.847Z,101795.09
2023-06-10T14:11:56.762Z,101796.19
2023-06-10T14:14:24.342Z,101800.75
2023-06-10T14:16:51.491Z,101795.47
2023-06-10T14:19:18.729Z,101783.09
2023-06-10T14:21:45.850Z,101797.56
2023-06-10T14:24:12.844Z,101785.84
2023-06-10T14:26:39.874Z,101789.72
2023-06-10T14:29:08.072Z,101785.31
2023-06-10T14:31:35.149Z,101798.22
2023-06-10T14:34:02.079Z,101782.47
2023-06-10T14:36:29.003Z,101787.88
2023-06-10T14:38:56.277Z,101786.00
2023-06-10T14:41:23.529Z,101779.63
2023-06-10T14:43:50.512Z,101793.84
2023-06-10T14:46:17.674Z,101785.50
2023-06-10T14:48:44.790Z,101782.31
2023-06-10T14:51:11.678Z,101784.94
2023-06-10T14:53:39.002Z,101785.13
2023-06-10T14:56:06.360Z,101788.19
2023-06-10T14:58:33.172Z,101789.25
2023-06-10T15:01:00.557Z,101782.72
2023-06-10T15:03:27.992Z,101779.00
2023-06-10T15:05:54.863Z,101775.31
2023-06-10T15:08:21.762Z,101768.06
2023-06-10T15:10:49.819Z,101782.19
2023-06-10T15:13:16.704Z,101768.19
2023-06-10T15:15:43.668Z,101761.91
2023-06-10T15:18:10.872Z,101760.84
2023-06-10T15:20:38.521Z,101759.53
2023-06-10T15:23:05.574Z,101760.81
2023-06-10T15:25:32.689Z,101764.72
2023-06-10T15:27:59.687Z,101757.41
2023-06-10T15:30:26.911Z,101761.34
2023-06-10T15:32:54.108Z,101751.47
2023-06-10T15:35:21.320Z,101754.22
2023-06-10T15:37:48.632Z,101753.34
2023-06-10T15:40:16.254Z,101756.16
2023-06-10T15:42:43.236Z,101757.66
2023-06-10T15:45:10.921Z,101763.00
2023-06-10T15:47:38.117Z,101758.09
2023-06-10T15:50:05.688Z,101757.13
2023-06-10T15:52:32.718Z,101757.47
2023-06-10T15:54:59.697Z,101753.09
2023-06-10T15:57:27.345Z,101758.88
2023-06-10T15:59:55.078Z,101752.97
2023-06-10T16:02:22.401Z,101740.88
2023-06-10T16:04:49.886Z,101739.69
2023-06-10T16:07:16.795Z,101738.47
2023-06-10T16:09:43.819Z,101749.22
2023-06-10T16:12:11.384Z,101731.41
2023-06-10T16:14:38.366Z,101729.53
2023-06-10T16:17:05.726Z,101727.06
2023-06-10T16:19:32.939Z,101723.41
2023-06-10T16:22:00.046Z,101727.28
2023-06-10T16:24:27.079Z,101731.06
2023-06-10T16:26:54.127Z,101739.22
2023-06-10T16:29:21.063Z,101750.19
2023-06-10T16:31:49.445Z,101756.88
2023-06-10T16:34:17.800Z,101755.38
2023-06-10T16:36:45.218Z,101757.78
2023-06-10T16:39:12.112Z,101752.75
2023-06-10T16:41:40.137Z,101763.16
2023-06-10T16:44:07.085Z,101758.03
2023-06-10T16:46:34.015Z,101766.88
2023-06-10T16:49:00.975Z,101773.50
2023-06-10T16:51:28.029Z,101765.22
2023-06-10T16:53:54.942Z,101767.84
2023-06-10T16:56:22.594Z,101763.59
2023-06-10T16:58:49.985Z,101756.91
2023-06-10T17:01:17.438Z,101764.03
2023-06-10T17:03:44.427Z,101762.53
2023-06-10T17:06:11.778Z,101760.81
2023-06-10T17:08:38.634Z,101760.25
2023-06-10T17:11:05.588Z,101742.34
2023-06-10T17:13:32.800Z,101733.38
2023-06-10T17:15:59.732Z,101726.72
2023-06-10T17:18:26.722Z,101721.44
2023-06-10T17:20:53.686Z,101723.44
2023-06-10T17:23:20.731Z,101714.84
2023-06-10T17:25:47.622Z,101728.31
2023-06-10T17:28:14.586Z,101715.88
2023-06-10T17:30:41.590Z,101716.50
2023-06-10T17:33:08.658Z,101709.00
2023-06-10T17:35:35.787Z,101711.53
2023-06-10T17:38:02.695Z,101712.47
2023-06-10T17:40:29.645Z,101711.88
2023-06-10T17:42:56.724Z,101718.09
2023-06-10T17:45:23.646Z,101716.78
2023-06-10T17:47:50.692Z,101714.38
2023-06-10T17:50:19.957Z,101716.75
2023-06-10T17:52:47.232Z,101710.38
2023-06-10T17:55:14.228Z,101716.03
2023-06-10T17:57:41.307Z,101711.16
2023-06-10T18:00:08.893Z,101711.78
2023-06-10T18:02:36.499Z,101704.94
2023-06-10T18:05:03.949Z,101715.56
2023-06-10T18:07:31.468Z,101712.41
2023-06-10T18:09:58.908Z,101710.25
2023-06-10T18:12:26.326Z,101700.78
2023-06-10T18:14:53.257Z,101710.97
2023-06-10T18:17:20.202Z,101715.44
2023-06-10T18:19:47.212Z,101704.69
2023-06-10T18:22:14.208Z,101707.56
2023-06-10T18:24:41.118Z,101706.63
2023-06-10T18:27:09.374Z,101707.81
2023-06-10T18:29:36.308Z,101700.00
2023-06-10T18:32:03.354Z,101710.97
2023-06-10T18:34:30.574Z,101709.50
2023-06-10T18:36:57.531Z,101709.66
2023-06-10T18:39:24.500Z,101712.47
2023-06-10T18:41:51.686Z,101705.38
2023-06-10T18:44:18.767Z,101707.41
2023-06-10T18:46:45.678Z,101696.03
2023-06-10T18:49:12.717Z,101702.25
2023-06-10T18:51:39.630Z,101706.75
2023-06-10T18:54:06.634Z,101699.63
2023-06-10T18:56:33.741Z,101706.13
2023-06-10T18:59:00.950Z,101705.38
2023-06-10T19:01:27.908Z,101703.47
2023-06-10T19:03:54.987Z,101712.34
2023-06-10T19:06:23.231Z,101710.41
2023-06-10T19:08:50.205Z,101710.47
2023-06-10T19:11:18.068Z,101712.94
2023-06-10T19:13:45.357Z,101713.34
2023-06-10T19:16:12.201Z,101708.16
2023-06-10T19:18:39.540Z,101712.19
2023-06-10T19:21:08.241Z,101717.41
2023-06-10T19:23:37.056Z,101721.41
2023-06-10T19:26:04.895Z,101723.41
2023-06-10T19:28:31.841Z,101725.44
2023-06-10T19:30:58.716Z,101729.84
2023-06-10T19:33:25.865Z,101727.06
2023-06-10T19:35:52.869Z,101730.66
2023-06-10T19:38:20.482Z,101723.88
2023-06-10T19:40:48.443Z,101730.66
2023-06-10T19:43:15.759Z,101727.47
2023-06-10T19:45:42.749Z,101735.47
2023-06-10T19:48:11.723Z,101737.81
2023-06-10T19:50:39.015Z,101735.00
2023-06-10T19:53:05.899Z,101738.19
2023-06-10T19:55:34.802Z,101739.38
2023-06-10T19:58:03.738Z,101735.38
2023-06-10T20:00:30.660Z,101735.75
2023-06-10T20:02:57.782Z,101737.69
2023-06-10T20:05:24.973Z,101736.47
2023-06-10T20:07:51.964Z,101730.88
2023-06-10T20:10:19.539Z,101736.84
2023-06-10T20:12:46.646Z,101726.47
2023-06-10T20:15:13.728Z,101729.22
2023-06-10T20:17:41.071Z,101730.41
2023-06-10T20:20:08.621Z,101736.34
2023-06-10T20:22:35.590Z,101737.88
2023-06-10T20:25:02.606Z,101743.84
2023-06-10T20:27:29.689Z,101744.59
2023-06-10T20:29:57.419Z,101743.78
2023-06-10T20:32:24.769Z,101753.72
2023-06-10T20:34:52.110Z,101747.69
2023-06-10T20:37:19.118Z,101750.84
2023-06-10T20:39:46.176Z,101747.63
2023-06-10T20:42:16.007Z,101748.78
2023-06-10T20:44:44.162Z,101755.16
2023-06-10T20:47:11.302Z,101752.34
2023-06-10T20:49:38.282Z,101757.91
2023-06-10T20:52:05.313Z,101763.84
2023-06-10T20:54:32.313Z,101759.81
2023-06-10T20:56:59.240Z,101756.63
2023-06-10T20:59:26.146Z,101757.78
2023-06-10T21:01:53.240Z,101750.56
2023-06-10T21:04:20.350Z,101754.50
2023-06-10T21:06:47.297Z,101755.28
2023-06-10T21:09:14.375Z,101760.03
2023-06-10T21:11:41.537Z,101765.59
2023-06-10T21:14:09.137Z,101752.78
2023-06-10T21:16:36.562Z,101757.94
2023-06-10T21:19:04.069Z,101756.69
2023-06-10T21:21:31.259Z,101761.44
2023-06-10T21:23:58.455Z,101759.81
2023-06-10T21:26:26.222Z,101756.63
2023-06-10T21:28:55.360Z,101756.53
2023-06-10T21:31:22.647Z,101758.09
2023-06-10T21:33:49.980Z,101756.88
2023-06-10T21:36:19.127Z,101762.84
2023-06-10T21:38:46.675Z,101750.84
2023-06-10T21:41:13.627Z,101754.78
2023-06-10T21:43:40.925Z,101755.16
2023-06-10T21:46:08.133Z,101748.34
2023-06-10T21:48:36.566Z,101753.88
2023-06-10T21:51:03.554Z,101756.25
2023-06-10T21:53:30.781Z,101761.03
2023-06-10T21:55:57.671Z,101753.44
2023-06-10T21:58:24.549Z,101753.44
2023-06-10T22:00:51.976Z,101757.84
2023-06-10T22:03:19.866Z,101760.56
2023-06-10T22:05:47.384Z,101757.75
2023-06-10T22:08:14.456Z,101751.75
2023-06-10T22:10:42.019Z,101751.75
2023-06-10T22:13:09.213Z,101757.31
2023-06-10T22:15:36.313Z,101752.13
2023-06-10T22:18:06.441Z,101751.72
2023-06-10T22:20:33.495Z,101757.69
2023-06-10T22:23:00.657Z,101749.69
2023-06-10T22:25:27.580Z,101743.69
2023-06-10T22:27:54.619Z,101748.06
2023-06-10T22:30:21.743Z,101738.06
2023-06-10T22:32:48.738Z,101743.25
2023-06-10T22:35:16.112Z,101742.03
2023-06-10T22:37:43.211Z,101741.69
2023-06-10T22:40:10.457Z,101737.28
2023-06-10T22:42:37.301Z,101740.88
2023-06-10T22:45:05.303Z,101744.41
2023-06-10T22:47:32.338Z,101744.00
2023-06-10T22:49:59.598Z,101735.66
2023-06-10T22:52:26.637Z,101732.88
2023-06-10T22:54:53.458Z,101743.25
2023-06-10T22:57:20.469Z,101744.78
2023-06-10T22:59:47.789Z,101745.16
2023-06-10T23:02:14.980Z,101747.16
2023-06-10T23:04:42.072Z,101746.03
2023-06-10T23:07:10.534Z,101744.88
2023-06-10T23:09:37.513Z,101740.91
2023-06-10T23:12:04.775Z,101736.94
2023-06-10T23:14:31.932Z,101738.16
2023-06-10T23:16:58.959Z,101731.84
2023-06-10T23:19:28.048Z,101734.19
2023-06-10T23:21:57.279Z,101736.22
2023-06-10T23:24:30.159Z,101727.44
2023-06-10T23:26:59.442Z,101733.00
2023-06-10T23:29:27.117Z,101724.31
2023-06-10T23:31:54.943Z,101733.88
2023-06-10T23:34:22.536Z,101727.09
2023-06-10T23:36:49.938Z,101736.25
2023-06-10T23:39:17.378Z,101727.53
2023-06-10T23:41:46.350Z,101730.72
2023-06-10T23:44:14.103Z,101726.31
2023-06-10T23:46:41.268Z,101729.91
2023-06-10T23:49:10.277Z,101740.25
2023-06-10T23:51:38.472Z,101724.81
2023-06-10T23:54:06.741Z,101723.63
2023-06-10T23:56:33.964Z,101726.81
2023-06-10T23:59:01.128Z,101725.66
